State Park, South Carolina
Current Conditions -  °F | °C
As of 11:53 AM on Monday 22 Dec 2014 (Local Time) from KCUB Reporting Station
Haze Haze  
Wind Chill: 45°   Ceiling: 500
Heat Index: 45°   Visibility: 3mi
Dew Point: 42°   Wind: 3mph
Humidity: 90%   Direction: NA
Pressure: 30.08"   Gusts: NA
Location:  34.09°N, 80.97°W
Report Text: KCUB 221653Z AUTO VRB03KT 3SM BR OVC005 07/06 A3008 RMK AO2 CIG 004V008 SLP185 T00720056
Loading
Personal Weather Stations






























Interactive Weather Map New forecast layout! Learn more

10-Day Weather Forecast

Advertisements
Track Severe Weather on mobile